sensor_id;sensor_type;location;lat;lon;timestamp;pressure;altitude;pressure_sealevel;temperature;humidity
39301;BME280;25019;42.626;23.380;2022-08-21T00:00:53;93894.13;;;17.27;100.00
39301;BME280;25019;42.626;23.380;2022-08-21T00:03:18;93894.19;;;17.35;100.00
39301;BME280;25019;42.626;23.380;2022-08-21T00:05:47;93870.47;;;17.15;100.00
39301;BME280;25019;42.626;23.380;2022-08-21T00:08:14;93886.72;;;17.32;100.00
39301;BME280;25019;42.626;23.380;2022-08-21T00:10:41;93898.63;;;17.40;100.00
39301;BME280;25019;42.626;23.380;2022-08-21T00:13:06;93888.75;;;17.27;100.00
39301;BME280;25019;42.626;23.380;2022-08-21T00:15:34;93891.22;;;17.23;100.00
39301;BME280;25019;42.626;23.380;2022-08-21T00:18:00;93895.38;;;17.29;100.00
39301;BME280;25019;42.626;23.380;2022-08-21T00:20:26;93891.72;;;17.25;100.00
39301;BME280;25019;42.626;23.380;2022-08-21T00:22:52;93887.44;;;17.24;100.00
39301;BME280;25019;42.626;23.380;2022-08-21T00:25:19;93890.03;;;17.29;100.00
39301;BME280;25019;42.626;23.380;2022-08-21T00:27:44;93881.31;;;17.24;100.00
39301;BME280;25019;42.626;23.380;2022-08-21T00:30:13;93884.19;;;17.13;100.00
39301;BME280;25019;42.626;23.380;2022-08-21T00:32:41;93826.13;;;16.81;100.00
39301;BME280;25019;42.626;23.380;2022-08-21T00:35:11;93893.63;;;17.25;100.00
39301;BME280;25019;42.626;23.380;2022-08-21T00:37:39;93892.38;;;17.31;100.00
39301;BME280;25019;42.626;23.380;2022-08-21T00:40:07;93890.69;;;17.35;100.00
39301;BME280;25019;42.626;23.380;2022-08-21T00:42:33;93891.56;;;17.44;100.00
39301;BME280;25019;42.626;23.380;2022-08-21T00:44:58;93847.31;;;17.19;100.00
39301;BME280;25019;42.626;23.380;2022-08-21T00:47:24;93888.56;;;17.46;100.00
39301;BME280;25019;42.626;23.380;2022-08-21T00:49:51;93893.44;;;17.44;100.00
39301;BME280;25019;42.626;23.380;2022-08-21T00:52:23;93904.06;;;17.49;100.00
39301;BME280;25019;42.626;23.380;2022-08-21T00:54:51;93899.19;;;17.51;100.00
39301;BME280;25019;42.626;23.380;2022-08-21T00:57:20;93892.91;;;17.56;100.00
39301;BME280;25019;42.626;23.380;2022-08-21T00:59:49;93889.13;;;17.57;100.00
39301;BME280;25019;42.626;23.380;2022-08-21T01:02:17;93893.28;;;17.63;100.00
39301;BME280;25019;42.626;23.380;2022-08-21T01:04:43;93887.00;;;17.67;100.00
39301;BME280;25019;42.626;23.380;2022-08-21T01:07:10;93861.97;;;17.58;100.00
39301;BME280;25019;42.626;23.380;2022-08-21T01:09:36;93874.06;;;17.70;100.00
39301;BME280;25019;42.626;23.380;2022-08-21T01:12:03;93875.34;;;17.72;100.00
39301;BME280;25019;42.626;23.380;2022-08-21T01:14:29;93874.06;;;17.70;100.00
39301;BME280;25019;42.626;23.380;2022-08-21T01:16:56;93817.06;;;17.27;100.00
39301;BME280;25019;42.626;23.380;2022-08-21T01:19:24;93872.28;;;17.65;100.00
39301;BME280;25019;42.626;23.380;2022-08-21T01:21:50;93877.03;;;17.68;100.00
39301;BME280;25019;42.626;23.380;2022-08-21T01:24:16;93861.25;;;17.66;100.00
39301;BME280;25019;42.626;23.380;2022-08-21T01:26:43;93871.66;;;17.68;100.00
39301;BME280;25019;42.626;23.380;2022-08-21T01:29:16;93823.78;;;17.39;100.00
39301;BME280;25019;42.626;23.380;2022-08-21T01:31:45;93857.28;;;17.64;100.00
39301;BME280;25019;42.626;23.380;2022-08-21T01:34:11;93857.09;;;17.60;100.00
39301;BME280;25019;42.626;23.380;2022-08-21T01:36:37;93870.69;;;17.64;100.00
39301;BME280;25019;42.626;23.380;2022-08-21T01:39:04;93871.31;;;17.61;100.00
39301;BME280;25019;42.626;23.380;2022-08-21T01:41:30;93797.31;;;17.00;100.00
39301;BME280;25019;42.626;23.380;2022-08-21T01:43:56;93869.38;;;17.52;100.00
39301;BME280;25019;42.626;23.380;2022-08-21T01:46:21;93790.94;;;16.96;100.00
39301;BME280;25019;42.626;23.380;2022-08-21T01:48:48;93872.44;;;17.46;100.00
39301;BME280;25019;42.626;23.380;2022-08-21T01:51:14;93867.09;;;17.46;100.00
39301;BME280;25019;42.626;23.380;2022-08-21T01:53:39;93873.56;;;17.45;100.00
39301;BME280;25019;42.626;23.380;2022-08-21T01:56:11;93875.47;;;17.44;100.00
39301;BME280;25019;42.626;23.380;2022-08-21T01:58:37;93892.47;;;17.40;100.00
39301;BME280;25019;42.626;23.380;2022-08-21T02:01:03;93878.06;;;17.35;100.00
39301;BME280;25019;42.626;23.380;2022-08-21T02:03:30;93873.59;;;17.31;100.00
39301;BME280;25019;42.626;23.380;2022-08-21T02:05:56;93878.38;;;17.34;100.00
39301;BME280;25019;42.626;23.380;2022-08-21T02:08:22;93882.16;;;17.33;100.00
39301;BME280;25019;42.626;23.380;2022-08-21T02:10:49;93876.28;;;17.31;100.00
39301;BME280;25019;42.626;23.380;2022-08-21T02:13:16;93879.28;;;17.29;100.00
39301;BME280;25019;42.626;23.380;2022-08-21T02:15:42;93893.47;;;17.30;100.00
39301;BME280;25019;42.626;23.380;2022-08-21T02:18:07;93875.84;;;17.15;100.00
39301;BME280;25019;42.626;23.380;2022-08-21T02:20:36;93883.78;;;17.20;100.00
39301;BME280;25019;42.626;23.380;2022-08-21T02:23:03;93868.63;;;17.01;100.00
39301;BME280;25019;42.626;23.380;2022-08-21T02:25:29;93894.44;;;17.11;100.00
39301;BME280;25019;42.626;23.380;2022-08-21T02:27:56;93891.56;;;17.07;100.00
39301;BME280;25019;42.626;23.380;2022-08-21T02:30:27;93887.72;;;17.00;100.00
39301;BME280;25019;42.626;23.380;2022-08-21T02:32:54;93884.41;;;17.03;100.00
39301;BME280;25019;42.626;23.380;2022-08-21T02:35:20;93893.16;;;17.09;100.00
39301;BME280;25019;42.626;23.380;2022-08-21T02:37:52;93890.47;;;17.09;100.00
39301;BME280;25019;42.626;23.380;2022-08-21T02:40:22;93899.50;;;17.13;100.00
39301;BME280;25019;42.626;23.380;2022-08-21T02:42:48;93892.25;;;17.13;100.00
39301;BME280;25019;42.626;23.380;2022-08-21T02:45:14;93893.84;;;17.14;100.00
39301;BME280;25019;42.626;23.380;2022-08-21T02:47:46;93893.66;;;17.11;100.00
39301;BME280;25019;42.626;23.380;2022-08-21T02:50:12;93900.91;;;17.10;100.00
39301;BME280;25019;42.626;23.380;2022-08-21T02:52:38;93897.53;;;17.04;100.00
39301;BME280;25019;42.626;23.380;2022-08-21T02:55:04;93858.22;;;16.72;100.00
39301;BME280;25019;42.626;23.380;2022-08-21T02:57:30;93902.81;;;16.96;100.00
39301;BME280;25019;42.626;23.380;2022-08-21T02:59:58;93897.72;;;16.94;100.00
39301;BME280;25019;42.626;23.380;2022-08-21T03:02:23;93901.72;;;16.97;100.00
39301;BME280;25019;42.626;23.380;2022-08-21T03:04:50;93882.53;;;16.89;100.00
39301;BME280;25019;42.626;23.380;2022-08-21T03:07:15;93891.97;;;17.01;100.00
39301;BME280;25019;42.626;23.380;2022-08-21T03:09:41;93829.63;;;16.53;100.00
39301;BME280;25019;42.626;23.380;2022-08-21T03:12:06;93897.72;;;16.94;100.00
39301;BME280;25019;42.626;23.380;2022-08-21T03:14:32;93894.25;;;16.93;100.00
39301;BME280;25019;42.626;23.380;2022-08-21T03:16:58;93893.94;;;16.95;100.00
39301;BME280;25019;42.626;23.380;2022-08-21T03:19:23;93890.75;;;16.93;100.00
39301;BME280;25019;42.626;23.380;2022-08-21T03:21:49;93889.66;;;16.94;100.00
39301;BME280;25019;42.626;23.380;2022-08-21T03:24:14;93894.78;;;16.96;100.00
39301;BME280;25019;42.626;23.380;2022-08-21T03:26:40;93891.56;;;16.93;100.00
39301;BME280;25019;42.626;23.380;2022-08-21T03:29:05;93891.56;;;16.93;100.00
39301;BME280;25019;42.626;23.380;2022-08-21T03:31:32;93892.09;;;16.96;100.00
39301;BME280;25019;42.626;23.380;2022-08-21T03:33:58;93876.84;;;16.91;100.00
39301;BME280;25019;42.626;23.380;2022-08-21T03:36:24;93900.81;;;17.01;100.00
39301;BME280;25019;42.626;23.380;2022-08-21T03:38:50;93854.44;;;16.59;100.00
39301;BME280;25019;42.626;23.380;2022-08-21T03:41:16;93796.13;;;16.28;100.00
39301;BME280;25019;42.626;23.380;2022-08-21T03:43:41;93895.03;;;16.80;100.00
39301;BME280;25019;42.626;23.380;2022-08-21T03:46:07;93884.63;;;16.78;100.00
39301;BME280;25019;42.626;23.380;2022-08-21T03:48:34;93896.44;;;16.77;100.00
39301;BME280;25019;42.626;23.380;2022-08-21T03:51:00;93893.09;;;16.72;100.00
39301;BME280;25019;42.626;23.380;2022-08-21T03:53:27;93895.94;;;16.75;100.00
39301;BME280;25019;42.626;23.380;2022-08-21T03:55:53;93912.81;;;16.76;100.00
39301;BME280;25019;42.626;23.380;2022-08-21T03:58:22;93904.09;;;16.70;100.00
39301;BME280;25019;42.626;23.380;2022-08-21T04:00:51;93873.84;;;16.42;100.00
39301;BME280;25019;42.626;23.380;2022-08-21T04:03:17;93907.69;;;16.66;100.00
39301;BME280;25019;42.626;23.380;2022-08-21T04:05:43;93921.19;;;16.74;100.00
39301;BME280;25019;42.626;23.380;2022-08-21T04:08:11;93875.69;;;16.41;100.00
39301;BME280;25019;42.626;23.380;2022-08-21T04:10:39;93914.22;;;16.73;100.00
39301;BME280;25019;42.626;23.380;2022-08-21T04:13:06;93904.59;;;16.72;100.00
39301;BME280;25019;42.626;23.380;2022-08-21T04:15:32;93909.34;;;16.75;100.00
39301;BME280;25019;42.626;23.380;2022-08-21T04:17:59;93907.97;;;16.78;100.00
39301;BME280;25019;42.626;23.380;2022-08-21T04:20:24;93913.22;;;16.83;100.00
39301;BME280;25019;42.626;23.380;2022-08-21T04:22:50;93905.66;;;16.85;100.00
39301;BME280;25019;42.626;23.380;2022-08-21T04:25:19;93908.53;;;16.89;100.00
39301;BME280;25019;42.626;23.380;2022-08-21T04:27:45;93904.47;;;16.91;100.00
39301;BME280;25019;42.626;23.380;2022-08-21T04:30:12;93908.44;;;16.94;100.00
39301;BME280;25019;42.626;23.380;2022-08-21T04:32:38;93909.47;;;16.98;100.00
39301;BME280;25019;42.626;23.380;2022-08-21T04:35:07;93907.88;;;16.97;100.00
39301;BME280;25019;42.626;23.380;2022-08-21T04:37:34;93903.06;;;16.94;100.00
39301;BME280;25019;42.626;23.380;2022-08-21T04:39:59;93903.31;;;16.98;100.00
39301;BME280;25019;42.626;23.380;2022-08-21T04:42:26;93905.69;;;16.99;100.00
39301;BME280;25019;42.626;23.380;2022-08-21T04:44:52;93885.50;;;16.88;100.00
39301;BME280;25019;42.626;23.380;2022-08-21T04:47:17;93882.03;;;16.87;100.00
39301;BME280;25019;42.626;23.380;2022-08-21T04:49:44;93895.75;;;17.00;100.00
39301;BME280;25019;42.626;23.380;2022-08-21T04:52:11;93868.94;;;16.86;100.00
39301;BME280;25019;42.626;23.380;2022-08-21T04:54:38;93893.38;;;16.98;100.00
39301;BME280;25019;42.626;23.380;2022-08-21T04:57:07;93895.25;;;17.12;100.00
39301;BME280;25019;42.626;23.380;2022-08-21T04:59:41;93898.22;;;17.10;100.00
39301;BME280;25019;42.626;23.380;2022-08-21T05:02:08;93894.41;;;17.25;100.00
39301;BME280;25019;42.626;23.380;2022-08-21T05:04:41;93895.00;;;17.81;100.00
39301;BME280;25019;42.626;23.380;2022-08-21T05:07:12;93854.91;;;17.94;100.00
39301;BME280;25019;42.626;23.380;2022-08-21T05:09:40;93885.59;;;18.65;100.00
39301;BME280;25019;42.626;23.380;2022-08-21T05:12:06;93902.84;;;19.22;100.00
39301;BME280;25019;42.626;23.380;2022-08-21T05:14:32;93897.50;;;19.66;100.00
39301;BME280;25019;42.626;23.380;2022-08-21T05:16:58;93885.38;;;20.25;100.00
39301;BME280;25019;42.626;23.380;2022-08-21T05:19:24;93888.44;;;20.92;100.00
39301;BME280;25019;42.626;23.380;2022-08-21T05:21:51;93880.19;;;21.39;100.00
39301;BME280;25019;42.626;23.380;2022-08-21T05:24:17;93893.13;;;21.89;100.00
39301;BME280;25019;42.626;23.380;2022-08-21T05:26:43;93902.91;;;21.81;100.00
39301;BME280;25019;42.626;23.380;2022-08-21T05:29:09;93895.94;;;21.59;100.00
39301;BME280;25019;42.626;23.380;2022-08-21T05:31:37;93900.28;;;21.72;100.00
39301;BME280;25019;42.626;23.380;2022-08-21T05:34:03;93901.34;;;21.59;100.00
39301;BME280;25019;42.626;23.380;2022-08-21T05:36:29;93890.03;;;21.65;100.00
39301;BME280;25019;42.626;23.380;2022-08-21T05:38:54;93877.34;;;22.12;100.00
39301;BME280;25019;42.626;23.380;2022-08-21T05:41:20;93877.47;;;22.74;100.00
39301;BME280;25019;42.626;23.380;2022-08-21T05:43:46;93799.75;;;22.74;100.00
39301;BME280;25019;42.626;23.380;2022-08-21T05:46:11;93879.81;;;23.66;100.00
39301;BME280;25019;42.626;23.380;2022-08-21T05:48:37;93870.06;;;23.49;100.00
39301;BME280;25019;42.626;23.380;2022-08-21T05:51:08;93812.03;;;23.38;99.82
39301;BME280;25019;42.626;23.380;2022-08-21T05:53:35;93878.50;;;24.17;100.00
39301;BME280;25019;42.626;23.380;2022-08-21T05:56:00;93870.44;;;23.10;100.00
39301;BME280;25019;42.626;23.380;2022-08-21T05:58:29;93823.06;;;22.42;100.00
39301;BME280;25019;42.626;23.380;2022-08-21T06:00:56;93813.97;;;22.59;100.00
39301;BME280;25019;42.626;23.380;2022-08-21T06:03:25;93873.97;;;22.98;100.00
39301;BME280;25019;42.626;23.380;2022-08-21T06:05:51;93883.19;;;22.60;100.00
39301;BME280;25019;42.626;23.380;2022-08-21T06:08:19;93878.25;;;22.62;100.00
39301;BME280;25019;42.626;23.380;2022-08-21T06:10:46;93882.75;;;22.58;100.00
39301;BME280;25019;42.626;23.380;2022-08-21T06:13:12;93867.47;;;22.28;100.00
39301;BME280;25019;42.626;23.380;2022-08-21T06:15:38;93835.53;;;21.63;100.00
39301;BME280;25019;42.626;23.380;2022-08-21T06:18:04;93845.53;;;20.99;100.00
39301;BME280;25019;42.626;23.380;2022-08-21T06:20:30;93872.44;;;21.08;100.00
39301;BME280;25019;42.626;23.380;2022-08-21T06:22:55;93880.38;;;21.34;100.00
39301;BME280;25019;42.626;23.380;2022-08-21T06:25:21;93845.47;;;21.29;100.00
39301;BME280;25019;42.626;23.380;2022-08-21T06:27:46;93879.38;;;21.60;100.00
39301;BME280;25019;42.626;23.380;2022-08-21T06:30:12;93837.97;;;21.14;100.00
39301;BME280;25019;42.626;23.380;2022-08-21T06:32:39;93868.72;;;21.21;100.00
39301;BME280;25019;42.626;23.380;2022-08-21T06:35:05;93829.19;;;20.65;100.00
39301;BME280;25019;42.626;23.380;2022-08-21T06:37:31;93874.69;;;20.76;100.00
39301;BME280;25019;42.626;23.380;2022-08-21T06:39:57;93881.78;;;20.89;100.00
39301;BME280;25019;42.626;23.380;2022-08-21T06:42:22;93880.97;;;21.19;100.00
39301;BME280;25019;42.626;23.380;2022-08-21T06:44:48;93881.16;;;21.14;100.00
39301;BME280;25019;42.626;23.380;2022-08-21T06:47:14;93885.91;;;21.38;100.00
39301;BME280;25019;42.626;23.380;2022-08-21T06:49:40;93894.16;;;21.42;100.00
39301;BME280;25019;42.626;23.380;2022-08-21T06:52:12;93891.25;;;21.47;100.00
39301;BME280;25019;42.626;23.380;2022-08-21T06:54:38;93889.41;;;21.60;100.00
39301;BME280;25019;42.626;23.380;2022-08-21T06:57:04;93894.78;;;21.68;100.00
39301;BME280;25019;42.626;23.380;2022-08-21T06:59:30;93899.63;;;21.96;100.00
39301;BME280;25019;42.626;23.380;2022-08-21T07:01:55;93889.53;;;22.30;100.00
39301;BME280;25019;42.626;23.380;2022-08-21T07:04:21;93871.06;;;22.33;100.00
39301;BME280;25019;42.626;23.380;2022-08-21T07:06:46;93890.63;;;22.75;100.00
39301;BME280;25019;42.626;23.380;2022-08-21T07:09:12;93887.81;;;22.97;100.00
39301;BME280;25019;42.626;23.380;2022-08-21T07:11:38;93888.16;;;23.08;100.00
39301;BME280;25019;42.626;23.380;2022-08-21T07:14:04;93878.69;;;22.89;100.00
39301;BME280;25019;42.626;23.380;2022-08-21T07:16:29;93891.63;;;22.58;100.00
39301;BME280;25019;42.626;23.380;2022-08-21T07:18:55;93895.50;;;22.57;100.00
39301;BME280;25019;42.626;23.380;2022-08-21T07:21:21;93888.50;;;22.69;100.00
39301;BME280;25019;42.626;23.380;2022-08-21T07:23:49;93818.44;;;22.30;100.00
39301;BME280;25019;42.626;23.380;2022-08-21T07:26:16;93881.59;;;22.47;100.00
39301;BME280;25019;42.626;23.380;2022-08-21T07:28:42;93870.03;;;22.25;100.00
39301;BME280;25019;42.626;23.380;2022-08-21T07:31:10;93872.19;;;22.32;100.00
39301;BME280;25019;42.626;23.380;2022-08-21T07:33:39;93875.66;;;22.20;100.00
39301;BME280;25019;42.626;23.380;2022-08-21T07:36:06;93879.84;;;22.17;100.00
39301;BME280;25019;42.626;23.380;2022-08-21T07:38:31;93874.53;;;22.08;100.00
39301;BME280;25019;42.626;23.380;2022-08-21T07:40:59;93872.28;;;22.10;100.00
39301;BME280;25019;42.626;23.380;2022-08-21T07:43:26;93854.81;;;21.74;100.00
39301;BME280;25019;42.626;23.380;2022-08-21T07:45:52;93794.84;;;21.05;100.00
39301;BME280;25019;42.626;23.380;2022-08-21T07:48:20;93867.66;;;21.35;100.00
39301;BME280;25019;42.626;23.380;2022-08-21T07:50:45;93834.88;;;21.24;100.00
39301;BME280;25019;42.626;23.380;2022-08-21T07:53:11;93870.56;;;21.72;100.00
39301;BME280;25019;42.626;23.380;2022-08-21T07:55:37;93865.53;;;21.83;100.00
39301;BME280;25019;42.626;23.380;2022-08-21T07:58:03;93856.59;;;22.04;100.00
39301;BME280;25019;42.626;23.380;2022-08-21T08:00:29;93861.50;;;22.35;100.00
39301;BME280;25019;42.626;23.380;2022-08-21T08:02:55;93869.22;;;22.58;100.00
39301;BME280;25019;42.626;23.380;2022-08-21T08:05:23;93827.16;;;22.48;100.00
39301;BME280;25019;42.626;23.380;2022-08-21T08:07:49;93869.66;;;22.60;100.00
39301;BME280;25019;42.626;23.380;2022-08-21T08:10:15;93863.41;;;22.35;100.00
39301;BME280;25019;42.626;23.380;2022-08-21T08:12:42;93861.88;;;22.46;100.00
39301;BME280;25019;42.626;23.380;2022-08-21T08:15:11;93861.19;;;22.86;100.00
39301;BME280;25019;42.626;23.380;2022-08-21T08:17:37;93869.78;;;23.01;100.00
39301;BME280;25019;42.626;23.380;2022-08-21T08:20:05;93874.47;;;23.16;99.99
39301;BME280;25019;42.626;23.380;2022-08-21T08:22:34;93838.50;;;23.03;99.97
39301;BME280;25019;42.626;23.380;2022-08-21T08:25:00;93870.53;;;23.01;100.00
39301;BME280;25019;42.626;23.380;2022-08-21T08:27:26;93832.25;;;22.62;100.00
39301;BME280;25019;42.626;23.380;2022-08-21T08:29:51;93874.84;;;23.02;100.00
39301;BME280;25019;42.626;23.380;2022-08-21T08:32:17;93880.50;;;23.22;100.00
39301;BME280;25019;42.626;23.380;2022-08-21T08:34:43;93877.50;;;23.52;100.00
39301;BME280;25019;42.626;23.380;2022-08-21T08:37:09;93889.16;;;23.81;99.00
39301;BME280;25019;42.626;23.380;2022-08-21T08:39:35;93884.31;;;24.03;95.66
39301;BME280;25019;42.626;23.380;2022-08-21T08:44:30;93881.97;;;24.17;94.30
39301;BME280;25019;42.626;23.380;2022-08-21T08:46:56;93880.28;;;23.84;94.79
39301;BME280;25019;42.626;23.380;2022-08-21T08:52:00;93875.63;;;23.97;96.38
39301;BME280;25019;42.626;23.380;2022-08-21T08:54:31;93875.38;;;24.02;95.67
39301;BME280;25019;42.626;23.380;2022-08-21T08:57:00;93852.91;;;24.02;94.55
39301;BME280;25019;42.626;23.380;2022-08-21T08:59:36;93868.53;;;24.21;93.81
39301;BME280;25019;42.626;23.380;2022-08-21T09:02:04;93862.56;;;24.15;93.12
39301;BME280;25019;42.626;23.380;2022-08-21T09:04:30;93865.88;;;24.08;93.90
39301;BME280;25019;42.626;23.380;2022-08-21T09:07:05;93852.84;;;23.86;93.87
39301;BME280;25019;42.626;23.380;2022-08-21T09:12:17;93852.50;;;24.16;93.76
39301;BME280;25019;42.626;23.380;2022-08-21T09:20:37;93820.13;;;24.07;91.88
39301;BME280;25019;42.626;23.380;2022-08-21T09:23:23;93846.03;;;24.52;91.46
39301;BME280;25019;42.626;23.380;2022-08-21T09:26:13;93841.75;;;24.51;89.62
39301;BME280;25019;42.626;23.380;2022-08-21T09:28:39;93825.84;;;24.50;88.72
39301;BME280;25019;42.626;23.380;2022-08-21T09:31:10;93836.06;;;24.41;89.75
39301;BME280;25019;42.626;23.380;2022-08-21T09:33:39;93839.66;;;24.61;88.81
39301;BME280;25019;42.626;23.380;2022-08-21T09:36:05;93838.84;;;24.92;89.00
39301;BME280;25019;42.626;23.380;2022-08-21T09:38:36;93833.47;;;24.96;87.48
39301;BME280;25019;42.626;23.380;2022-08-21T09:41:09;93830.38;;;24.94;87.09
39301;BME280;25019;42.626;23.380;2022-08-21T09:43:36;93834.94;;;24.74;88.35
39301;BME280;25019;42.626;23.380;2022-08-21T09:46:20;93828.19;;;24.83;87.41
39301;BME280;25019;42.626;23.380;2022-08-21T09:48:49;93828.38;;;24.75;87.59
39301;BME280;25019;42.626;23.380;2022-08-21T09:51:21;93801.66;;;24.45;88.01
39301;BME280;25019;42.626;23.380;2022-08-21T09:53:51;93785.28;;;23.93;91.03
39301;BME280;25019;42.626;23.380;2022-08-21T09:56:28;93844.31;;;23.71;94.61
39301;BME280;25019;42.626;23.380;2022-08-21T09:59:19;93842.28;;;23.52;96.48
39301;BME280;25019;42.626;23.380;2022-08-21T10:01:49;93833.00;;;23.53;97.32
39301;BME280;25019;42.626;23.380;2022-08-21T10:04:15;93784.41;;;23.19;97.68
39301;BME280;25019;42.626;23.380;2022-08-21T10:06:44;93823.19;;;23.48;99.33
39301;BME280;25019;42.626;23.380;2022-08-21T10:09:12;93824.88;;;23.53;99.46
39301;BME280;25019;42.626;23.380;2022-08-21T10:11:40;93823.16;;;23.61;99.58
39301;BME280;25019;42.626;23.380;2022-08-21T10:17:45;93822.38;;;23.76;98.62
39301;BME280;25019;42.626;23.380;2022-08-21T10:20:27;93763.69;;;23.52;98.31
39301;BME280;25019;42.626;23.380;2022-08-21T10:25:27;93806.50;;;23.91;96.06
39301;BME280;25019;42.626;23.380;2022-08-21T10:28:07;93816.63;;;24.22;95.13
39301;BME280;25019;42.626;23.380;2022-08-21T10:30:52;93810.31;;;24.34;95.71
39301;BME280;25019;42.626;23.380;2022-08-21T10:33:38;93808.75;;;24.33;93.53
39301;BME280;25019;42.626;23.380;2022-08-21T10:36:19;93807.69;;;24.54;92.63
39301;BME280;25019;42.626;23.380;2022-08-21T10:38:55;93806.53;;;24.55;91.70
39301;BME280;25019;42.626;23.380;2022-08-21T10:41:35;93808.75;;;24.17;90.68
39301;BME280;25019;42.626;23.380;2022-08-21T10:46:46;93793.72;;;24.36;91.81
39301;BME280;25019;42.626;23.380;2022-08-21T10:57:38;93776.34;;;25.08;84.27
39301;BME280;25019;42.626;23.380;2022-08-21T11:00:10;93780.13;;;25.04;84.79
39301;BME280;25019;42.626;23.380;2022-08-21T11:02:41;93771.72;;;25.09;81.82
39301;BME280;25019;42.626;23.380;2022-08-21T11:05:19;93765.47;;;24.89;83.96
39301;BME280;25019;42.626;23.380;2022-08-21T11:07:55;93768.47;;;24.51;84.23
39301;BME280;25019;42.626;23.380;2022-08-21T11:10:33;93765.59;;;24.28;86.45
39301;BME280;25019;42.626;23.380;2022-08-21T11:13:07;93755.38;;;24.05;85.02
39301;BME280;25019;42.626;23.380;2022-08-21T11:15:46;93749.94;;;24.05;86.45
39301;BME280;25019;42.626;23.380;2022-08-21T11:18:52;93748.19;;;24.13;86.71
39301;BME280;25019;42.626;23.380;2022-08-21T11:22:06;93749.94;;;24.05;89.25
39301;BME280;25019;42.626;23.380;2022-08-21T11:26:47;93746.41;;;23.73;89.88
39301;BME280;25019;42.626;23.380;2022-08-21T11:29:22;93748.44;;;23.92;90.07
39301;BME280;25019;42.626;23.380;2022-08-21T11:43:37;93745.69;;;24.72;83.49
39301;BME280;25019;42.626;23.380;2022-08-21T11:49:12;93743.78;;;24.73;85.22
39301;BME280;25019;42.626;23.380;2022-08-21T11:54:48;93743.75;;;25.08;84.29
39301;BME280;25019;42.626;23.380;2022-08-21T12:00:13;93731.44;;;25.15;80.20
39301;BME280;25019;42.626;23.380;2022-08-21T12:02:51;93680.84;;;24.87;79.70
39301;BME280;25019;42.626;23.380;2022-08-21T12:05:33;93705.78;;;24.92;78.45
39301;BME280;25019;42.626;23.380;2022-08-21T12:10:42;93715.50;;;24.93;79.69
39301;BME280;25019;42.626;23.380;2022-08-21T12:13:30;93713.53;;;24.74;81.09
39301;BME280;25019;42.626;23.380;2022-08-21T12:16:11;93714.06;;;24.80;81.03
39301;BME280;25019;42.626;23.380;2022-08-21T12:18:38;93730.50;;;24.87;80.36
39301;BME280;25019;42.626;23.380;2022-08-21T12:26:37;93736.25;;;24.66;84.95
39301;BME280;25019;42.626;23.380;2022-08-21T12:29:16;93734.94;;;24.60;83.33
39301;BME280;25019;42.626;23.380;2022-08-21T12:31:53;93727.97;;;24.43;85.12
39301;BME280;25019;42.626;23.380;2022-08-21T12:34:20;93717.84;;;24.23;85.84
39301;BME280;25019;42.626;23.380;2022-08-21T12:36:54;93732.00;;;24.33;86.48
39301;BME280;25019;42.626;23.380;2022-08-21T12:39:27;93729.19;;;24.29;86.48
39301;BME280;25019;42.626;23.380;2022-08-21T12:42:04;93731.41;;;24.23;88.38
39301;BME280;25019;42.626;23.380;2022-08-21T12:44:39;93731.75;;;24.22;89.53
39301;BME280;25019;42.626;23.380;2022-08-21T12:47:14;93728.69;;;24.23;89.76
39301;BME280;25019;42.626;23.380;2022-08-21T12:49:53;93730.97;;;24.21;92.06
39301;BME280;25019;42.626;23.380;2022-08-21T12:52:29;93728.25;;;24.05;93.61
39301;BME280;25019;42.626;23.380;2022-08-21T12:54:55;93701.22;;;23.93;95.10
39301;BME280;25019;42.626;23.380;2022-08-21T12:57:25;93722.38;;;24.03;95.40
39301;BME280;25019;42.626;23.380;2022-08-21T12:59:59;93707.88;;;24.12;94.98
39301;BME280;25019;42.626;23.380;2022-08-21T13:02:31;93711.03;;;24.14;94.02
39301;BME280;25019;42.626;23.380;2022-08-21T13:05:02;93708.31;;;24.14;93.87
39301;BME280;25019;42.626;23.380;2022-08-21T13:07:30;93709.63;;;24.04;93.29
39301;BME280;25019;42.626;23.380;2022-08-21T13:10:04;93713.19;;;23.92;93.34
39301;BME280;25019;42.626;23.380;2022-08-21T13:12:31;93717.28;;;23.86;95.05
39301;BME280;25019;42.626;23.380;2022-08-21T13:15:04;93713.06;;;23.72;95.55
39301;BME280;25019;42.626;23.380;2022-08-21T13:17:32;93711.34;;;23.64;96.21
39301;BME280;25019;42.626;23.380;2022-08-21T13:20:05;93707.50;;;23.65;97.17
39301;BME280;25019;42.626;23.380;2022-08-21T13:22:31;93684.66;;;23.50;98.41
39301;BME280;25019;42.626;23.380;2022-08-21T13:24:57;93699.78;;;23.51;98.44
39301;BME280;25019;42.626;23.380;2022-08-21T13:27:26;93698.13;;;23.62;98.90
39301;BME280;25019;42.626;23.380;2022-08-21T13:32:27;93686.13;;;23.47;99.33
39301;BME280;25019;42.626;23.380;2022-08-21T13:34:56;93689.41;;;23.53;99.97
39301;BME280;25019;42.626;23.380;2022-08-21T13:37:23;93678.19;;;23.55;100.00
39301;BME280;25019;42.626;23.380;2022-08-21T13:39:51;93678.81;;;23.64;100.00
39301;BME280;25019;42.626;23.380;2022-08-21T13:42:17;93680.47;;;23.85;100.00
39301;BME280;25019;42.626;23.380;2022-08-21T13:44:46;93672.69;;;23.99;100.00
39301;BME280;25019;42.626;23.380;2022-08-21T13:47:15;93689.25;;;24.10;100.00
39301;BME280;25019;42.626;23.380;2022-08-21T13:49:44;93692.81;;;23.98;100.00
39301;BME280;25019;42.626;23.380;2022-08-21T13:52:22;93672.84;;;23.74;100.00
39301;BME280;25019;42.626;23.380;2022-08-21T13:55:08;93598.34;;;23.20;100.00